CMA CGM Aristote — MRPN4 — position and weather

sailwx.info

Track history (hours):
 
Tides and Currents Weather Stations Pressure Air Temp Water Temp Dewpoint Dewpoint Depression Visibility Wind Speed Wind Dir Waves Ship Positions

CMA CGM Aristote

Last reported at 2016-Aug-26 07:34 UTC. Time now 2016-Aug-26 08:33 UTC.
Position N 51°58' E 004°02'.

Length 170 m; draft 8.6 m.

Type: Ship (hazmat cat A). MMSI: 235054581.

Date/timePositionNaut miles runAvg speedWind from/ knotsBaromVisibWave heightAir tempDewpointWater temp
2016-Aug-26 07:34N 51°58' E 004°02'0 0.1
2016-Aug-26 06:32N 51°59' E 004°02'0 0.0
2016-Aug-26 04:32N 51°59' E 004°02'0 0.0
2016-Aug-26 03:32N 51°59' E 004°02'0 0.0
2016-Aug-26 02:32N 51°59' E 004°02'0 0.0
2016-Aug-26 01:32N 51°59' E 004°02'0 0.0
2016-Aug-26 00:32N 51°59' E 004°02'0 0.0
2016-Aug-25 23:32N 51°59' E 004°02'0 0.0
2016-Aug-25 22:32N 51°59' E 004°02'0 0.0
2016-Aug-25 21:32N 51°59' E 004°02'0 0.0
2016-Aug-25 20:33N 51°59' E 004°02'2 1.6
2016-Aug-25 19:33N 51°60' E 004°00'9 9.5
2016-Aug-25 18:33N 51°60' E 003°45'1713.0
2016-Aug-25 17:16N 51°52' E 003°21'912.5
2016-Aug-25 16:34N 51°45' E 003°13'1211.8
2016-Aug-25 15:33N 51°35' E 003°23'1110.6
2016-Aug-25 14:34N 51°27' E 003°34'9 9.2
2016-Aug-25 13:34N 51°22' E 003°46'1010.2
2016-Aug-25 12:34N 51°24' E 004°02'1010.3
2016-Aug-25 11:33N 51°19' E 004°16'1 0.9
2016-Aug-25 10:30N 51°18' E 004°16'0 0.0
2016-Aug-25 09:30N 51°18' E 004°16'0 0.0
2016-Aug-25 08:30N 51°18' E 004°16'0 0.0
2016-Aug-25 07:33N 51°18' E 004°16'0 0.0
2016-Aug-25 06:33N 51°18' E 004°16'0 0.0
2016-Aug-25 04:33N 51°18' E 004°16'0 0.0
2016-Aug-25 03:33N 51°18' E 004°16'2 2.4
2016-Aug-25 02:34N 51°20' E 004°16'8 8.4
2016-Aug-25 01:33N 51°22' E 004°03'7 6.5
2016-Aug-25 00:34N 51°21' E 003°53'9 9.3
2016-Aug-24 23:33N 51°26' E 003°40'10 9.7
2016-Aug-24 22:33N 51°25' E 003°25'1313.1
2016-Aug-24 21:33N 51°24' E 003°04'1110.7
2016-Aug-24 20:33N 51°22' E 002°48'9 9.0
2016-Aug-24 19:31N 51°20' E 002°33'0 0.0
2016-Aug-24 18:31N 51°20' E 002°33'0 0.0
2016-Aug-24 17:31N 51°20' E 002°33'0 0.0
2016-Aug-24 16:31N 51°20' E 002°33'0 0.1
2016-Aug-24 15:31N 51°20' E 002°33'0 0.2
2016-Aug-24 14:31N 51°20' E 002°33'0 0.0
2016-Aug-24 13:25N 51°20' E 002°33'0 0.0
2016-Aug-24 12:28N 51°20' E 002°33'0 0.0
2016-Aug-24 11:33N 51°20' E 002°33'0 0.0
2016-Aug-24 10:31N 51°20' E 002°33'0 0.1
2016-Aug-24 09:31N 51°20' E 002°33'0 0.0
2016-Aug-24 08:31N 51°20' E 002°33'0 0.1
2016-Aug-24 07:31N 51°20' E 002°33'0 0.0
2016-Aug-24 06:31N 51°20' E 002°33'6 3.1
2016-Aug-24 04:33N 51°20' E 002°23'1212.1
2016-Aug-24 03:33N 51°21' E 002°04'1111.3
2016-Aug-24 02:33N 51°30' E 001°51'1212.0
2016-Aug-24 01:33N 51°28' E 001°32'1110.7
2016-Aug-24 00:33N 51°29' E 001°15'1212.1
2016-Aug-23 23:34N 51°29' E 000°56'1515.3
2016-Aug-23 22:34N 51°30' E 000°31'7 7.4
2016-Aug-23 21:34N 51°27' E 000°20'0 0.0
2016-Aug-23 20:34N 51°27' E 000°20'0 0.0
2016-Aug-23 19:34N 51°27' E 000°20'0 0.0
2016-Aug-23 18:34N 51°27' E 000°20'0 0.0
2016-Aug-23 17:34N 51°27' E 000°20'0 0.0
2016-Aug-23 16:34N 51°27' E 000°20'7 7.0
2016-Aug-23 15:34N 51°30' E 000°30'1413.6
2016-Aug-23 14:33N 51°29' E 000°52'1717.2
2016-Aug-23 13:33N 51°29' E 001°20'1211.5
2016-Aug-23 12:33N 51°22' E 001°35'10 9.7
2016-Aug-23 11:33N 51°13' E 001°38'8 8.3
2016-Aug-23 10:33N 51°04' E 001°37'1010.3
2016-Aug-23 09:33N 50°57' E 001°26'1513.5
2016-Aug-23 08:29N 50°43' E 001°18'3317.2
2016-Aug-23 06:32N 50°26' E 000°33'1616.6
2016-Aug-23 05:33N 50°21' E 000°09'1616.2
2016-Aug-23 04:34N 50°17' W 000°16'1615.7
2016-Aug-23 03:33N 50°13' W 000°40'1716.6
2016-Aug-23 02:33N 50°09' W 001°05'1818.2
2016-Aug-23 01:34N 50°03' W 001°32'2019.5
2016-Aug-23 00:33N 49°59' W 002°01'2020.2
2016-Aug-22 23:33N 49°54' W 002°32'2019.9
2016-Aug-22 22:34N 49°46' W 003°00'2019.6
2016-Aug-22 21:33N 49°36' W 003°26'2019.6
2016-Aug-22 20:34N 49°27' W 003°53'1919.4
2016-Aug-22 19:34N 49°17' W 004°18'1918.6
2016-Aug-22 18:34N 49°07' W 004°43'1918.8
2016-Aug-22 17:33N 48°58' W 005°07'1717.1
2016-Aug-22 16:33N 48°49' W 005°30'1818.3
2016-Aug-22 15:33N 48°35' W 005°47'1919.1
2016-Aug-22 14:33N 48°18' W 005°60'1918.7
2016-Aug-22 13:33N 48°01' W 006°12'1818.2
2016-Aug-22 12:33N 47°45' W 006°25'1817.8
2016-Aug-22 11:34N 47°29' W 006°38'2319.1
2016-Aug-22 10:21N 47°09' W 006°53'11119.2
2016-Aug-22 04:34N 45°30' W 008°07'1918.9
2016-Aug-22 03:34N 45°13' W 008°20'1919.0
2016-Aug-22 02:33N 44°56' W 008°32'1918.8
2016-Aug-22 01:34N 44°40' W 008°44'4318.5
2016-Aug-21 23:15N 44°02' W 009°13'9217.8
2016-Aug-21 18:04N 42°33' W 009°49'3118.2
2016-Aug-21 16:21N 42°02' W 009°49'12418.1
2016-Aug-21 09:30N 39°58' W 009°51'7117.8
2016-Aug-21 05:32N 38°48' W 009°51'1817.9
2016-Aug-21 04:33N 38°30' W 009°48'1717.6
2016-Aug-21 03:33N 38°13' W 009°43'2117.6
2016-Aug-21 02:20N 37°52' W 009°37'1417.5
2016-Aug-21 01:33N 37°39' W 009°34'3817.4
2016-Aug-20 23:21N 37°02' W 009°22'3716.7
2016-Aug-20 21:10N 36°38' W 008°47'1118.6
2016-Aug-20 20:33N 36°34' W 008°34'1918.5
2016-Aug-20 19:33N 36°29' W 008°12'1918.5
2016-Aug-20 18:30N 36°23' W 007°49'1718.2
2016-Aug-20 17:33N 36°19' W 007°28'2118.5
2016-Aug-20 16:24N 36°12' W 007°03'4319.0
2016-Aug-20 14:08N 35°58' W 006°12'1119.0
2016-Aug-20 13:32N 35°58' W 005°58'1616.1
2016-Aug-20 12:32N 35°57' W 005°38'6 0.4
2016-Aug-19 21:33N 35°55' W 005°31'2 2.2
2016-Aug-19 20:33N 35°54' W 005°33'2 1.4
2016-Aug-19 19:28N 35°55' W 005°32'6 7.0
2016-Aug-19 18:34N 35°60' W 005°27'8 8.1
2016-Aug-19 17:33N 36°01' W 005°17'14011.7
2016-Aug-19 05:33N 36°25' W 002°25'1110.6
2016-Aug-19 04:33N 36°26' W 002°12'1110.9
2016-Aug-19 03:33N 36°34' W 002°03'1010.5
2016-Aug-19 02:33N 36°42' W 001°55'1110.6
2016-Aug-19 01:31N 36°50' W 001°46'1010.4
2016-Aug-19 00:31N 36°58' W 001°37'49 3.7
2016-Aug-18 11:28N 37°30' W 000°51'1719.0
2016-Aug-18 10:33N 37°28' W 000°29'4719.5
2016-Aug-18 08:09N 37°30' E 000°30'1119.4
2016-Aug-18 07:33N 37°31' E 000°44'1919.3
2016-Aug-18 06:33N 37°33' E 001°08'1919.5
2016-Aug-18 05:33N 37°34' E 001°33'4619.5
2016-Aug-18 03:12N 37°38' E 002°31'1319.7
2016-Aug-18 02:33N 37°38' E 002°47'2019.7
2016-Aug-18 01:33N 37°39' E 003°12'2019.6
2016-Aug-18 00:33N 37°41' E 003°36'1919.6
2016-Aug-17 23:33N 37°42' E 004°01'1919.1
2016-Aug-17 22:33N 37°43' E 004°25'2019.7
2016-Aug-17 21:33N 37°45' E 004°50'2520.0
2016-Aug-17 20:18N 37°47' E 005°21'18919.2
2016-Aug-17 10:29N 37°60' E 009°20'3718.4
2016-Aug-17 08:29N 38°02' E 010°07'2018.3
2016-Aug-17 07:24N 38°03' E 010°32'1618.3
2016-Aug-17 06:33N 38°04' E 010°52'1817.7
2016-Aug-17 05:34N 37°59' E 011°13'1918.5
2016-Aug-17 04:33N 37°49' E 011°33'1918.4
2016-Aug-17 03:33N 37°39' E 011°53'1818.2
2016-Aug-17 02:33N 37°30' E 012°12'1918.6
2016-Aug-17 01:33N 37°21' E 012°33'1818.3
2016-Aug-17 00:33N 37°11' E 012°52'1818.0
2016-Aug-16 23:34N 37°03' E 013°12'1818.0
2016-Aug-16 22:33N 36°54' E 013°32'1817.9
2016-Aug-16 21:33N 36°45' E 013°51'1818.5
2016-Aug-16 20:34N 36°36' E 014°11'1918.7
2016-Aug-16 19:33N 36°28' E 014°32'1918.7
2016-Aug-16 18:33N 36°26' E 014°55'1818.2
2016-Aug-16 17:33N 36°25' E 015°18'1818.0
2016-Aug-16 16:33N 36°24' E 015°40'  
Track history (hours):
 
Tides and Currents Weather Stations Pressure Air Temp Water Temp Dewpoint Dewpoint Depression Visibility Wind Speed Wind Dir Waves Ship Positions

CMA CGM Aristote

Last reported at 2016-Aug-26 07:34 UTC. Time now 2016-Aug-26 08:33 UTC.
Position N 51°58' E 004°02'.

Length 170 m; draft 8.6 m.

Type: Ship (hazmat cat A). MMSI: 235054581.

Date/timePositionNaut miles runAvg speedWind from/ knotsBaromVisibWave heightAir tempDewpointWater temp
2016-Aug-26 07:34N 51°58' E 004°02'0 0.1
2016-Aug-26 06:32N 51°59' E 004°02'0 0.0
2016-Aug-26 04:32N 51°59' E 004°02'0 0.0
2016-Aug-26 03:32N 51°59' E 004°02'0 0.0
2016-Aug-26 02:32N 51°59' E 004°02'0 0.0
2016-Aug-26 01:32N 51°59' E 004°02'0 0.0
2016-Aug-26 00:32N 51°59' E 004°02'0 0.0
2016-Aug-25 23:32N 51°59' E 004°02'0 0.0
2016-Aug-25 22:32N 51°59' E 004°02'0 0.0
2016-Aug-25 21:32N 51°59' E 004°02'0 0.0
2016-Aug-25 20:33N 51°59' E 004°02'2 1.6
2016-Aug-25 19:33N 51°60' E 004°00'9 9.5
2016-Aug-25 18:33N 51°60' E 003°45'1713.0
2016-Aug-25 17:16N 51°52' E 003°21'912.5
2016-Aug-25 16:34N 51°45' E 003°13'1211.8
2016-Aug-25 15:33N 51°35' E 003°23'1110.6
2016-Aug-25 14:34N 51°27' E 003°34'9 9.2
2016-Aug-25 13:34N 51°22' E 003°46'1010.2
2016-Aug-25 12:34N 51°24' E 004°02'1010.3
2016-Aug-25 11:33N 51°19' E 004°16'1 0.9
2016-Aug-25 10:30N 51°18' E 004°16'0 0.0
2016-Aug-25 09:30N 51°18' E 004°16'0 0.0
2016-Aug-25 08:30N 51°18' E 004°16'0 0.0
2016-Aug-25 07:33N 51°18' E 004°16'0 0.0
2016-Aug-25 06:33N 51°18' E 004°16'0 0.0
2016-Aug-25 04:33N 51°18' E 004°16'0 0.0
2016-Aug-25 03:33N 51°18' E 004°16'2 2.4
2016-Aug-25 02:34N 51°20' E 004°16'8 8.4
2016-Aug-25 01:33N 51°22' E 004°03'7 6.5
2016-Aug-25 00:34N 51°21' E 003°53'9 9.3
2016-Aug-24 23:33N 51°26' E 003°40'10 9.7
2016-Aug-24 22:33N 51°25' E 003°25'1313.1
2016-Aug-24 21:33N 51°24' E 003°04'1110.7
2016-Aug-24 20:33N 51°22' E 002°48'9 9.0
2016-Aug-24 19:31N 51°20' E 002°33'0 0.0
2016-Aug-24 18:31N 51°20' E 002°33'0 0.0
2016-Aug-24 17:31N 51°20' E 002°33'0 0.0
2016-Aug-24 16:31N 51°20' E 002°33'0 0.1
2016-Aug-24 15:31N 51°20' E 002°33'0 0.2
2016-Aug-24 14:31N 51°20' E 002°33'0 0.0
2016-Aug-24 13:25N 51°20' E 002°33'0 0.0
2016-Aug-24 12:28N 51°20' E 002°33'0 0.0
2016-Aug-24 11:33N 51°20' E 002°33'0 0.0
2016-Aug-24 10:31N 51°20' E 002°33'0 0.1
2016-Aug-24 09:31N 51°20' E 002°33'0 0.0
2016-Aug-24 08:31N 51°20' E 002°33'0 0.1
2016-Aug-24 07:31N 51°20' E 002°33'0 0.0
2016-Aug-24 06:31N 51°20' E 002°33'6 3.1
2016-Aug-24 04:33N 51°20' E 002°23'1212.1
2016-Aug-24 03:33N 51°21' E 002°04'1111.3
2016-Aug-24 02:33N 51°30' E 001°51'1212.0
2016-Aug-24 01:33N 51°28' E 001°32'1110.7
2016-Aug-24 00:33N 51°29' E 001°15'1212.1
2016-Aug-23 23:34N 51°29' E 000°56'1515.3
2016-Aug-23 22:34N 51°30' E 000°31'7 7.4
2016-Aug-23 21:34N 51°27' E 000°20'0 0.0
2016-Aug-23 20:34N 51°27' E 000°20'0 0.0
2016-Aug-23 19:34N 51°27' E 000°20'0 0.0
2016-Aug-23 18:34N 51°27' E 000°20'0 0.0
2016-Aug-23 17:34N 51°27' E 000°20'0 0.0
2016-Aug-23 16:34N 51°27' E 000°20'7 7.0
2016-Aug-23 15:34N 51°30' E 000°30'1413.6
2016-Aug-23 14:33N 51°29' E 000°52'1717.2
2016-Aug-23 13:33N 51°29' E 001°20'1211.5
2016-Aug-23 12:33N 51°22' E 001°35'10 9.7
2016-Aug-23 11:33N 51°13' E 001°38'8 8.3
2016-Aug-23 10:33N 51°04' E 001°37'1010.3
2016-Aug-23 09:33N 50°57' E 001°26'1513.5
2016-Aug-23 08:29N 50°43' E 001°18'3317.2
2016-Aug-23 06:32N 50°26' E 000°33'1616.6
2016-Aug-23 05:33N 50°21' E 000°09'1616.2
2016-Aug-23 04:34N 50°17' W 000°16'1615.7
2016-Aug-23 03:33N 50°13' W 000°40'1716.6
2016-Aug-23 02:33N 50°09' W 001°05'1818.2
2016-Aug-23 01:34N 50°03' W 001°32'2019.5
2016-Aug-23 00:33N 49°59' W 002°01'2020.2
2016-Aug-22 23:33N 49°54' W 002°32'2019.9
2016-Aug-22 22:34N 49°46' W 003°00'2019.6
2016-Aug-22 21:33N 49°36' W 003°26'2019.6
2016-Aug-22 20:34N 49°27' W 003°53'1919.4
2016-Aug-22 19:34N 49°17' W 004°18'1918.6
2016-Aug-22 18:34N 49°07' W 004°43'1918.8
2016-Aug-22 17:33N 48°58' W 005°07'1717.1
2016-Aug-22 16:33N 48°49' W 005°30'1818.3
2016-Aug-22 15:33N 48°35' W 005°47'1919.1
2016-Aug-22 14:33N 48°18' W 005°60'1918.7
2016-Aug-22 13:33N 48°01' W 006°12'1818.2
2016-Aug-22 12:33N 47°45' W 006°25'1817.8
2016-Aug-22 11:34N 47°29' W 006°38'2319.1
2016-Aug-22 10:21N 47°09' W 006°53'11119.2
2016-Aug-22 04:34N 45°30' W 008°07'1918.9
2016-Aug-22 03:34N 45°13' W 008°20'1919.0
2016-Aug-22 02:33N 44°56' W 008°32'1918.8
2016-Aug-22 01:34N 44°40' W 008°44'4318.5
2016-Aug-21 23:15N 44°02' W 009°13'9217.8
2016-Aug-21 18:04N 42°33' W 009°49'3118.2
2016-Aug-21 16:21N 42°02' W 009°49'12418.1
2016-Aug-21 09:30N 39°58' W 009°51'7117.8
2016-Aug-21 05:32N 38°48' W 009°51'1817.9
2016-Aug-21 04:33N 38°30' W 009°48'1717.6
2016-Aug-21 03:33N 38°13' W 009°43'2117.6
2016-Aug-21 02:20N 37°52' W 009°37'1417.5
2016-Aug-21 01:33N 37°39' W 009°34'3817.4
2016-Aug-20 23:21N 37°02' W 009°22'3716.7
2016-Aug-20 21:10N 36°38' W 008°47'1118.6
2016-Aug-20 20:33N 36°34' W 008°34'1918.5
2016-Aug-20 19:33N 36°29' W 008°12'1918.5
2016-Aug-20 18:30N 36°23' W 007°49'1718.2
2016-Aug-20 17:33N 36°19' W 007°28'2118.5
2016-Aug-20 16:24N 36°12' W 007°03'4319.0
2016-Aug-20 14:08N 35°58' W 006°12'1119.0
2016-Aug-20 13:32N 35°58' W 005°58'1616.1
2016-Aug-20 12:32N 35°57' W 005°38'6 0.4
2016-Aug-19 21:33N 35°55' W 005°31'2 2.2
2016-Aug-19 20:33N 35°54' W 005°33'2 1.4
2016-Aug-19 19:28N 35°55' W 005°32'6 7.0
2016-Aug-19 18:34N 35°60' W 005°27'8 8.1
2016-Aug-19 17:33N 36°01' W 005°17'14011.7
2016-Aug-19 05:33N 36°25' W 002°25'1110.6
2016-Aug-19 04:33N 36°26' W 002°12'1110.9
2016-Aug-19 03:33N 36°34' W 002°03'1010.5
2016-Aug-19 02:33N 36°42' W 001°55'1110.6
2016-Aug-19 01:31N 36°50' W 001°46'1010.4
2016-Aug-19 00:31N 36°58' W 001°37'49 3.7
2016-Aug-18 11:28N 37°30' W 000°51'1719.0
2016-Aug-18 10:33N 37°28' W 000°29'4719.5
2016-Aug-18 08:09N 37°30' E 000°30'1119.4
2016-Aug-18 07:33N 37°31' E 000°44'1919.3
2016-Aug-18 06:33N 37°33' E 001°08'1919.5
2016-Aug-18 05:33N 37°34' E 001°33'4619.5
2016-Aug-18 03:12N 37°38' E 002°31'1319.7
2016-Aug-18 02:33N 37°38' E 002°47'2019.7
2016-Aug-18 01:33N 37°39' E 003°12'2019.6
2016-Aug-18 00:33N 37°41' E 003°36'1919.6
2016-Aug-17 23:33N 37°42' E 004°01'1919.1
2016-Aug-17 22:33N 37°43' E 004°25'2019.7
2016-Aug-17 21:33N 37°45' E 004°50'2520.0
2016-Aug-17 20:18N 37°47' E 005°21'18919.2
2016-Aug-17 10:29N 37°60' E 009°20'3718.4
2016-Aug-17 08:29N 38°02' E 010°07'2018.3
2016-Aug-17 07:24N 38°03' E 010°32'1618.3
2016-Aug-17 06:33N 38°04' E 010°52'1817.7
2016-Aug-17 05:34N 37°59' E 011°13'1918.5
2016-Aug-17 04:33N 37°49' E 011°33'1918.4
2016-Aug-17 03:33N 37°39' E 011°53'1818.2
2016-Aug-17 02:33N 37°30' E 012°12'1918.6
2016-Aug-17 01:33N 37°21' E 012°33'1818.3
2016-Aug-17 00:33N 37°11' E 012°52'1818.0
2016-Aug-16 23:34N 37°03' E 013°12'1818.0
2016-Aug-16 22:33N 36°54' E 013°32'1817.9
2016-Aug-16 21:33N 36°45' E 013°51'1818.5
2016-Aug-16 20:34N 36°36' E 014°11'1918.7
2016-Aug-16 19:33N 36°28' E 014°32'1918.7
2016-Aug-16 18:33N 36°26' E 014°55'1818.2
2016-Aug-16 17:33N 36°25' E 015°18'1818.0
2016-Aug-16 16:33N 36°24' E 015°40'  

Dump ship's entire track history